Aviation Digital Data Service (ADDS)

Output produced by METARs form (0243 UTC 22 July 2017)
found at http://www.aviationweather.gov/adds/metars/
 
NZAA 220230Z AUTO 28017G27KT 9999 BKN039/// BKN046/// BKN055/// 14/11 Q0989 TEMPO 4000 SHRA
TAF NZAA 212310Z 2200/2300 30012KT 9999 -SHRA SCT025 BKN050 
     BECMG 2200/2202 28018G30KT 
     TEMPO 2200/2204 4000 SHRA FEW020TCU 
     TEMPO 2204/2212 7000 SHRA 
     BECMG 2208/2210 24012KT
       
NZCH 220230Z AUTO 23022KT 6000 -RA SCT008/// BKN012/// BKN034/// 07/06 Q0996 RERA TEMPO 2000 -RADZ BKN008
TAF NZCH 212305Z 2200/2300 24020G30KT 3000 RADZ BKN008 
     TEMPO 2200/2204 8000 -RADZ BKN014 
     FM220400 24020G30KT 9999 -RADZ BKN018 
     TEMPO 2205/2209 6000 RA BKN014 
     BECMG 2207/2209 21012KT 
     FM221700 27005KT 9999 SCT020
       
NZOH 220000Z 19008KT 5000 -RADZ BKN005 OVC012 12/11 Q0986 BECMG 32012KT 15KM BKN007
NZWN 220230Z AUTO 19034G45KT 7000 BKN018/// BKN029/// OVC034/// 10/07 Q0990 BECMG BKN014
TAF COR NZWN 220003Z 2200/2300 19030G45KT 9999 BKN014 
     TEMPO 2200/2204 7000 RADZ 
     TEMPO 2204/2209 4000 RA BKN006 FEW020TCU 
     BECMG 2212/2214 19025G35KT SCT012 BKN018 
     BECMG 2220/2222 18015G25KT